Terminal Aerodrome Forecast
Issued by NWS Twin Cities, MN

Home | Current Version | Previous Version | Graphics & Text | Print | Product List | Glossary On
Versions: 1 2 3 4 5 6 7 8 9 10 11 12 13 14 15 16
000
FTUS43 KMPX 281413 AAA
TAFSTC
TAF AMD
KSTC 281413Z 2814/2912 14012KT 5SM BR OVC006
     FM281800 16009KT P6SM SCT006 OVC010
     FM282300 14004KT 4SM BR OVC007
     FM290300 32007KT P6SM OVC009
     FM290600 32015G24KT P6SM OVC012=

USA.gov is the U.S. government's official web portal to all federal, state and local government web resources and services.